x

8452944 - Conimicut Light, Ri (cptr1) Weather Station

7:30 - Thu 2nd Jul 2015 All times are EDT. -4 hours from GMT.

  • Wind
    10mph, 13mph gusts
  • Sea Temp 71°f
  • Ar Temp 71°f
  • Sea Pressure 1011mb
  • 8452944 - Conimicut Light, Ri
  • 8452944 - Conimicut Light, Ri

More Historic Weather Station data

Upgrade to MSW Pro to gain access to the past 30 days of data for over 8000 Wavebouys and Weather Stations around the globe.

Join Pro

Comparision Forecast

View Surf forecast
   
Qui 07/02 7:30 10 13 mph 1011mb 71f 71f
7:24 11 13 mph 1011.1mb 71f 72f
7:18 11 14 mph 1011.1mb 71f 72f
7:12 13 14 mph 1011.1mb 71f 72f
7:06 13 14 mph 1011.1mb 71f 72f
7:00 13 14 mph 1011.1mb 71f 72f
6:54 13 14 mph 1011.2mb 71f 72f
6:48 13 15 mph 1011.1mb 71f 72f
6:42 14
mph
1011.1mb 71f 72f
6:36 14 15 mph 1011.2mb 71f 72f
6:30 14 15 mph 1011.1mb 71f 72f
6:24 11 14 mph 1011.1mb 71f 72f
6:18 13 15 mph 1011.1mb 72f 72f
6:12 14 15 mph 1011.1mb 72f 73f
6:06 15
mph
1011mb 72f 73f
6:00 14 15 mph 1011mb 72f 73f
5:54 13 14 mph 1011.1mb 72f 73f
5:48 11 13 mph 1011.1mb 72f 73f
5:42 10 13 mph 1011.1mb 72f 73f
5:36 11 13 mph 1011.2mb 72f 73f
5:30 13 15 mph 1011.2mb 72f 73f
5:24 14 15 mph 1011.3mb 72f 73f
5:18 14 15 mph 1011.4mb 72f 73f
5:12 15 17 mph 1011.3mb 72f 73f
5:06 15 18 mph 1011.5mb 72f 73f
5:00 15 17 mph 1011.4mb 72f 73f
4:54 14 15 mph 1011.5mb 72f 73f
4:48 14 16 mph 1011.4mb 72f 73f
4:42 16
mph
1011.4mb 72f 73f
4:36 13 14 mph 1011.5mb 72f 73f
4:30 14 15 mph 1011.5mb 71f 73f
4:24 13 14 mph 1011.6mb 71f 73f
4:18 13 15 mph 1011.5mb 71f 73f
4:12 14 15 mph 1011.5mb 71f 73f
4:06 15 16 mph 1011.4mb 71f 73f
4:00 13 14 mph 1011.4mb 71f 73f
3:54 9 14 mph 1011.4mb 71f 74f
3:48 11 14 mph 1011.4mb 71f 74f
3:42 13 15 mph 1011.4mb 71f 74f
3:36 13 14 mph 1011.4mb 71f 74f
3:30 13 14 mph 1011.4mb 71f 74f
3:24 13 14 mph 1011.5mb 71f 74f
3:18 13 14 mph 1011.6mb 71f 74f
3:12 13 15 mph 1011.6mb 71f 74f
3:06 15 18 mph 1011.6mb 71f 74f
3:00 16 18 mph 1011.6mb 71f 74f
2:54 14 15 mph 1011.7mb 72f 74f
2:48 14
mph
1011.7mb 72f 74f
2:42 11 14 mph 1011.7mb 72f 74f
2:36 14 16 mph 1011.8mb 72f 74f
2:30 15 16 mph 1011.7mb 73f 74f
2:24 15 17 mph 1011.8mb 73f 74f
2:18 14 15 mph 1011.8mb 73f 74f
2:12 15
mph
1011.8mb 73f 74f
2:06 13
mph
1011.7mb 73f 74f
2:00 11 14 mph 1011.7mb 73f 74f
1:54 13 15 mph 1011.7mb 73f 74f
1:48 14 15 mph 1011.7mb 73f 74f
1:42 11 14 mph 1011.6mb 73f 74f
1:36 8 10 mph 1011.7mb 73f 74f
1:30 10 13 mph 1011.8mb 73f 74f
1:24 11 14 mph 1011.8mb 73f 74f
1:18 13 14 mph 1011.8mb 73f 74f
1:12 13 14 mph 1011.8mb 73f 74f
1:06 13
mph
1011.9mb 73f 74f
1:00 11 13 mph 1011.9mb 73f 73f
12:54 11 13 mph 1011.9mb 73f 73f
12:48 11
mph
1011.9mb 73f 73f
12:42 11
mph
1012mb 73f 73f
12:36 10 11 mph 1012mb 73f 73f
12:30 11 13 mph 1012mb 73f 73f
12:24  -  mph - - 73f
12:18  -  mph - - 73f
12:12  -  mph 1012.2mb - 73f
12:06  -  mph 1012.3mb 73f 73f
12:00  -  mph 1012.4mb 73f 73f
11:54  -  mph 1012.5mb 73f 72f
11:48  -  mph 1012.5mb 73f 72f
11:42  -  mph 1012.5mb 73f 72f
11:36  -  mph 1012.5mb 73f 72f
11:30  -  mph 1012.6mb 73f 72f
11:24  -  mph 1012.6mb 73f 72f
11:18 6 8 mph 1012.7mb 72f 72f
11:12 6 7 mph 1012.7mb 72f 72f
11:06 5 7 mph 1012.7mb 72f 72f
11:00 8 9 mph 1012.7mb 72f 72f
10:54 7 8 mph 1012.7mb 72f 72f
10:48 7 8 mph 1012.6mb 72f 72f
10:42 7
mph
1012.7mb 72f 72f
10:36 6 7 mph 1012.7mb 71f 72f
10:30 2 5 mph 1012.8mb 71f 72f
10:24 3 5 mph 1012.8mb 71f 72f
10:18 5 8 mph 1012.7mb 71f 72f
10:12 6
mph
1012.7mb 71f 72f
10:06  -  3 mph 1012.7mb 71f 71f
10:00 2 6 mph 1012.7mb 71f 72f
9:54 6 8 mph 1012.8mb 71f 71f
9:48 6 8 mph 1012.8mb 71f 71f
9:42 7 9 mph 1012.7mb 71f 71f
9:36 6 9 mph 1012.8mb 71f 71f
9:30 8 9 mph 1012.8mb 71f 71f
9:24 6 10 mph 1012.7mb 70f 71f
9:18 8 10 mph 1012.7mb 70f 71f
9:12 7 9 mph 1012.6mb 70f 70f
9:06 7 8 mph 1012.6mb 70f 70f
9:00 8 9 mph 1012.5mb 70f 70f
8:54 8 10 mph 1012.4mb 70f 70f
8:48 8 10 mph 1012.3mb 70f 70f
8:42 8 10 mph 1012.4mb 70f 70f
8:36 7 10 mph 1012.5mb 70f 70f
8:30 8 9 mph 1012.5mb 70f 69f
8:24 8 9 mph 1012.4mb 70f 69f
8:18 7 10 mph 1012.2mb 70f 69f
8:12 7 10 mph 1012.2mb 70f 69f
8:06 6 8 mph 1012.2mb 70f 69f
8:00 6 7 mph 1012.1mb 70f 68f
7:54 5 6 mph 1012.1mb 70f 68f
7:48 5 7 mph 1012.1mb 70f 68f
7:42 5 8 mph 1012.1mb 70f 68f
7:36 6 8 mph 1012.2mb 70f 67f
7:30 6 7 mph 1012.1mb 71f 67f
7:24 5 6 mph 1012mb 71f 67f
7:18 5 7 mph 1012mb 71f 66f
7:12 6 7 mph 1012mb 71f 66f
7:06 6
mph
1011.9mb 71f 66f
7:00 5 6 mph 1011.9mb 71f 65f
6:54 5 6 mph 1011.9mb 71f 65f
6:48 3 6 mph 1011.8mb 71f 65f
6:42 5 7 mph 1011.8mb 71f 65f
6:36 5 7 mph 1011.7mb 71f 66f
6:30 5 6 mph 1011.7mb 71f 65f
6:24 6 7 mph 1011.6mb 71f 65f
6:18 6 7 mph 1011.5mb 71f 65f
6:12 5 6 mph 1011.4mb 71f 65f
6:06 5 7 mph 1011.4mb 71f 65f
6:00 5 6 mph 1011.3mb 71f 65f
5:54 5 6 mph 1011.2mb 71f 65f
5:48 5 6 mph 1011.1mb 71f 65f
5:42 5 6 mph 1011mb 71f 65f
5:36 5 6 mph 1010.9mb 71f 66f
5:30 6 8 mph 1010.7mb 71f 66f
5:24 7 8 mph 1010.6mb 71f 67f
5:18 6
mph
1010.5mb 71f 67f
5:12 6
mph
1010.5mb 71f 67f
5:06 5 6 mph 1010.4mb 71f 67f
5:00 5
mph
1010.5mb 71f 67f
4:54 3 5 mph 1010.5mb 71f 67f
4:48 5 6 mph 1010.6mb 71f 67f
4:42 5
mph
1010.6mb 71f 67f
4:36 5 6 mph 1010.8mb 71f 67f
4:30 6
mph
1010.9mb 71f 67f
4:24 5 6 mph 1010.8mb 71f 67f
4:18 6 7 mph 1010.8mb 71f 67f
4:12 5 6 mph 1010.6mb 71f 67f
4:06 5 6 mph 1010.5mb 71f 67f
4:00 5 6 mph 1010.5mb 71f 67f
3:54 5 7 mph 1010.4mb 72f 67f
3:48 6 7 mph 1010.4mb 72f 67f
3:42 6 8 mph 1010.4mb 72f 67f
3:36 6 7 mph 1010.5mb 72f 67f
3:30 6 7 mph 1010.5mb 72f 67f
3:24 6 7 mph 1010.5mb 72f 68f
3:18 7 8 mph 1010.6mb 72f 68f
3:12 7 9 mph 1010.5mb 72f 68f
3:06 7 10 mph 1010.5mb 72f 68f
3:00 8 10 mph 1010.5mb 72f 68f
2:54 8 10 mph 1010.5mb 72f 68f
2:48 8 11 mph 1010.5mb 72f 69f
2:42 10 14 mph 1010.5mb 72f 69f
2:36 13 17 mph 1010.4mb 72f 69f
2:30 13 14 mph 1010.4mb 72f 69f
2:24 11 13 mph 1010.4mb 72f 69f
2:18 11 14 mph 1010.4mb 72f 69f
2:12 13 15 mph 1010.5mb 72f 69f
2:06 11 14 mph 1010.5mb 72f 70f
2:00 11 14 mph 1010.4mb 72f 70f
1:54 11 14 mph 1010.5mb 72f 70f
1:48 8 11 mph 1010.5mb 72f 70f
1:42 8 9 mph 1010.5mb 72f 70f
1:36 6 8 mph 1010.5mb 72f 70f
1:30 8 10 mph 1010.5mb 72f 71f
1:24 9 13 mph 1010.4mb 72f 71f
1:18 11 14 mph 1010.4mb 72f 71f
1:12 14 16 mph 1010.3mb 72f 71f
1:06 14 16 mph 1010.3mb 72f 71f
1:00 14 17 mph 1010.4mb 72f 72f
12:54 15 17 mph 1010.4mb 72f 72f
12:48 15 18 mph 1010.5mb 72f 72f
12:42 16 18 mph 1010.5mb 72f 72f
12:36 13 15 mph 1010.5mb 72f 72f
12:30 10 14 mph 1010.4mb 72f 71f
12:24 10 13 mph 1010.4mb 72f 72f
12:18 11 13 mph 1010.3mb 72f 72f
12:12 11 14 mph 1010.2mb 72f 72f
12:06 13 14 mph 1010.1mb 72f 72f
12:00 11 14 mph 1010mb 72f 72f
Qua 07/01 11:54 13 15 mph 1010mb 72f 72f
11:48 11 14 mph 1010.1mb 72f 72f
11:42 11 14 mph 1010.1mb 72f 72f
11:36 10 14 mph 1010.1mb 72f 72f
11:30 11 16 mph 1010mb 72f 72f
11:24 13 15 mph 1009.9mb 72f 73f
11:18 13 16 mph 1009.8mb 72f 73f
11:12 14 18 mph 1009.7mb 72f 73f
11:06 15 18 mph 1009.7mb 72f 73f
11:00 15 20 mph 1009.6mb 72f 73f
10:54 15 20 mph 1009.5mb 72f 73f
10:48 13 16 mph 1009.4mb 72f 73f
10:42 14 15 mph 1009.4mb 72f 73f
10:36 11 15 mph 1009.3mb 72f 73f
10:30 13 14 mph 1009.3mb 72f 73f
10:24 13 15 mph 1009.3mb 72f 72f
10:18 11 14 mph 1009.2mb 72f 72f
10:12 11 14 mph 1009.3mb 72f 72f
10:06 14 15 mph 1009.2mb 72f 72f
10:00 13 15 mph 1009.2mb 72f 72f
9:54 13 16 mph 1009.1mb 72f 72f
9:48 13 15 mph 1009mb 71f 72f
9:42 13 16 mph 1008.9mb 71f 72f
9:36 14 16 mph 1008.8mb 71f 72f
9:30 14 18 mph 1008.6mb 71f 73f
9:24 14 16 mph 1008.5mb 71f 73f
9:18 14 17 mph 1008.5mb 71f 73f
9:12 14 18 mph 1008.4mb 71f 73f
9:06 15 17 mph 1008.4mb 71f 73f
9:00 14 17 mph 1008.4mb 71f 73f
8:54 15 18 mph 1008.2mb 71f 73f
8:48 13 16 mph 1008.1mb 71f 73f
8:42 14 15 mph 1008.1mb 71f 73f
8:36 13 14 mph 1008mb 71f 73f
8:30 13 15 mph 1008mb 71f 73f
8:24 13 17 mph 1007.9mb 71f 73f
8:18 15 17 mph 1008mb 71f 74f
8:12 14 17 mph 1007.9mb 71f 74f
8:06 15 21 mph 1007.8mb 71f 74f
8:00 16 17 mph 1007.7mb 71f 74f
7:54 15 17 mph 1007.7mb 71f 73f
7:48 16 21 mph 1007.6mb 71f 74f
7:42 17 22 mph 1007.5mb 71f 75f
7:36 17 21 mph 1007.4mb 71f 75f
7:30 17 22 mph 1007.4mb 71f 75f
7:24 18 23 mph 1007.4mb 71f 75f
7:18 20 23 mph 1007.3mb 71f 75f
7:12 21 22 mph 1007.2mb 71f 75f
7:06 21 24 mph 1007.1mb 71f 76f
7:00 21 23 mph 1007.2mb 71f 76f
6:54 18 23 mph 1007.2mb 71f 76f
6:48 20 24 mph 1007.1mb 71f 76f
6:42 18 23 mph 1007.1mb 71f 76f
6:36 20 23 mph 1007.1mb 71f 76f
6:30 20 23 mph 1007.1mb 71f 77f
6:24 23 25 mph 1007.1mb 71f 77f
6:18 16 22 mph 1007mb 71f 77f
6:12 18 23 mph 1007.1mb 71f 77f
6:06 17 22 mph 1007.2mb 71f 77f
6:00 20 23 mph 1007.1mb 71f 77f
5:54 20 23 mph 1007mb 71f 77f
5:48 17 20 mph 1006.9mb 71f 77f
5:42 15 23 mph 1006.8mb 71f 77f
5:36 14 18 mph 1006.8mb 71f 78f
5:30 17 24 mph 1006.8mb 71f 78f
5:24 20 26 mph 1006.9mb 71f 78f
5:18 20 23 mph 1006.9mb 71f 78f
5:12 21 28 mph 1006.9mb 71f 78f
5:06 24 26 mph 1007.1mb 71f 78f
5:00 22 26 mph 1007.1mb 71f 78f
4:54 21 24 mph 1006.9mb 71f 78f
4:48 22 24 mph 1006.9mb 71f 78f
4:42 17 25 mph 1006.9mb 71f 78f
4:36 18 22 mph 1006.8mb 71f 78f
4:30 18 21 mph 1006.6mb 71f 78f
4:24 17 21 mph 1006.5mb 71f 78f
4:18 18 22 mph 1006.5mb 71f 77f
4:12 20 23 mph 1006.6mb 71f 77f
4:06 20 22 mph 1006.6mb 71f 78f
4:00 15 24 mph 1006.6mb 71f 78f
3:54 17 22 mph 1006.7mb 71f 78f
3:48 18 23 mph 1006.7mb 71f 77f
3:42 22 24 mph 1006.7mb 71f 78f
3:36 20 22 mph 1006.7mb 71f 78f
3:30 22 25 mph 1006.8mb 70f 77f
3:24 18 25 mph 1006.8mb 70f 77f
3:18 21 25 mph 1006.9mb 70f 77f
3:12 21 26 mph 1006.8mb 70f 77f
3:06 18 21 mph 1006.7mb 70f 77f
3:00 18 28 mph 1006.7mb 70f 77f
2:54 20 25 mph 1006.9mb 70f 77f
2:48 17 23 mph 1006.9mb 71f 77f
2:42 22 28 mph 1007.1mb 71f 77f
2:36 14 21 mph 1007mb 71f 77f
2:30 17 22 mph 1007mb 71f 77f
2:24 15 21 mph 1006.9mb 71f 77f
2:18 20 24 mph 1006.9mb 71f 77f
2:12 22 25 mph 1007mb 71f 77f
2:06 22 25 mph 1007mb 71f 77f
2:00 23 25 mph 1006.9mb 71f 76f
1:54 21 26 mph 1007mb 71f 76f
1:48 15 26 mph 1007mb 70f 75f
1:42 17 21 mph 1006.9mb 70f 76f
1:36 17 21 mph 1007.1mb 70f 74f
1:30 20 22 mph 1007mb 70f 74f
1:24 18 21 mph 1007mb 70f 73f
1:18 20 21 mph 1007mb 70f 74f
1:12 20 22 mph 1007mb 70f 75f
1:06 18 21 mph 1006.9mb 70f 73f
1:00 18 21 mph 1007mb 70f 74f
12:54 14 18 mph 1007.2mb 70f 74f
12:48 16 18 mph 1007.2mb 70f 73f
12:42 15 16 mph 1007.4mb 70f 73f
12:36 14 17 mph 1007.4mb 70f 72f
12:30 14 18 mph 1007.5mb 70f 71f
12:24 16 18 mph 1007.5mb 70f 71f
12:18 16 18 mph 1007.5mb 70f 71f
12:12 17 20 mph 1007.7mb 70f 70f
12:06 17 20 mph 1007.7mb 70f 70f
12:00 16 20 mph 1007.7mb 70f 70f
11:54 17 21 mph 1007.7mb 70f 69f
11:48 20 21 mph 1007.8mb 70f 69f
11:42 21 22 mph 1008mb 70f 69f
11:36 20 22 mph 1008.1mb 70f 70f
11:30 20 22 mph 1008.2mb 70f 70f
11:24 18 23 mph 1008.2mb 70f 70f
11:18 22 24 mph 1008.1mb 70f 70f
11:12 21 25 mph 1008.1mb 70f 70f
11:06 22 24 mph 1008.2mb 70f 70f
11:00 21 23 mph 1008.2mb 70f 70f
10:54 18 21 mph 1008.3mb 70f 70f
10:48 17 20 mph 1008.4mb 70f 69f
10:42 16 18 mph 1008.3mb 70f 69f
10:36 17 18 mph 1008.2mb 70f 69f
10:30 15 17 mph 1008.3mb 70f 69f
10:24 16 18 mph 1008.4mb 70f 69f
10:18 17 18 mph 1008.3mb 70f 68f
10:12 17 21 mph 1008.4mb 70f 68f
10:06 20 22 mph 1008.4mb 70f 68f
10:00 16 18 mph 1008.5mb 70f 68f
9:54 17 18 mph 1008.4mb 70f 68f
9:48 17 23 mph 1008.4mb 70f 68f
9:42 20 23 mph 1008.3mb 70f 68f
9:36 18 22 mph 1008.3mb 70f 68f
9:30 15 18 mph 1008.5mb 70f 68f
9:24 16 17 mph 1008.2mb 70f 68f
9:18 16 20 mph 1008.1mb 70f 68f
9:12 16 20 mph 1008.1mb 70f 67f
9:06 17 21 mph 1008.1mb 70f 67f
9:00 22 26 mph 1008.3mb 70f 67f
8:54 25 28 mph 1008.5mb 70f 67f
8:48 22 28 mph 1008.9mb 70f 67f
8:42 20 25 mph 1009mb 70f 67f
8:36 25 30 mph 1009.3mb 70f 67f
8:30 26 31 mph 1009.7mb 70f 67f
8:24 26 30 mph 1009.7mb 70f 68f
8:18 21 23 mph 1010mb 70f 68f
8:12 20 24 mph 1009.6mb 70f 67f
8:06 21 25 mph 1009.7mb 70f 67f
8:00 21 23 mph 1010.1mb 70f 67f
7:54 11 14 mph 1011mb 70f 67f
7:48 9 18 mph 1011.5mb 70f 67f
7:42 16 23 mph 1011.6mb 70f 67f
7:36 22 24 mph 1012.1mb 70f 68f
7:30 18 22 mph 1011.1mb 70f 68f
7:24 18 22 mph 1010.5mb 70f 68f
7:18 20 23 mph 1009.9mb 70f 68f
7:12 20 23 mph 1009.6mb 70f 68f
7:06 20 22 mph 1009.8mb 70f 68f
7:00 21 26 mph 1010.2mb 70f 68f
6:54 20 22 mph 1010.3mb 70f 68f
6:48 16 24 mph 1010.4mb 69f 68f
6:42 22 24 mph 1010.4mb 69f 68f
6:36 22 24 mph 1010.3mb 69f 68f
6:30 21 22 mph 1010.2mb 69f 69f
6:24 18 21 mph 1010.5mb 69f 69f
6:18 16 18 mph 1010.4mb 69f 69f
6:12 15 17 mph 1010.2mb 69f 69f
6:06 14 16 mph 1010.1mb 69f 69f
6:00 14 15 mph 1010.2mb 70f 68f
5:54 13 15 mph 1010.4mb 70f 68f
5:48 13 16 mph 1010.3mb 70f 68f
5:42 15 18 mph 1010.1mb 70f 68f
5:36 15 17 mph 1010.2mb 70f 68f
5:30 16 18 mph 1009.9mb 70f 68f
5:24 14 17 mph 1010mb 70f 68f
5:18 16 17 mph 1010mb 70f 68f
5:12 15 20 mph 1010.4mb 70f 68f
5:06 16 18 mph 1010.2mb 70f 68f
5:00 16 17 mph 1010.4mb 70f 69f
4:54 15 17 mph 1010.6mb 70f 69f
4:48 15 18 mph 1010.8mb 70f 69f
4:42 15 17 mph 1010.8mb 70f 68f
4:36 14 16 mph 1011.2mb 70f 68f
4:30 15 17 mph 1011.2mb 70f 68f
4:24 14 16 mph 1011.5mb 70f 68f
4:18 14 15 mph 1011.6mb 70f 68f
4:12 13 14 mph 1011.6mb 70f 68f
4:06 11 14 mph 1011.7mb 70f 68f
4:00 10 15 mph 1011.7mb 70f 68f
3:54 13 15 mph 1011.8mb 70f 68f
3:48 11 14 mph 1011.8mb 70f 68f
3:42 10 13 mph 1012mb 70f 68f
3:36 10 11 mph 1011.9mb 70f 68f
3:30 10 11 mph 1011.9mb 70f 68f
3:24 11 14 mph 1011.9mb 70f 68f
3:18 13 14 mph 1011.9mb 70f 68f
3:12 13 14 mph 1011.8mb 70f 68f
3:06 13 14 mph 1011.8mb 70f 68f
3:00 13 14 mph 1011.9mb 70f 68f
2:54 11 14 mph 1011.8mb 70f 68f
2:48  -  mph - 70f 68f
2:42  -  mph - 70f 68f
2:36  -  mph - 70f 68f
2:30 11 14 mph 1012.1mb 70f 68f
2:24 11 14 mph 1012.2mb 70f 68f
2:18 10 11 mph 1012.3mb 70f 68f
2:12 11 14 mph 1012.4mb 70f 68f
2:06 11 14 mph 1012.6mb 70f 68f
2:00 13 14 mph 1012.7mb 70f 68f
1:54 13 14 mph 1012.8mb 70f 68f
1:48 13 14 mph 1013mb 70f 68f
1:42 14 15 mph 1013mb 70f 68f
1:36 11 15 mph 1013.1mb 70f 68f
1:30 13 15 mph 1013.2mb 70f 68f
1:24 11 13 mph 1013.2mb 70f 68f
1:18 11 14 mph 1013.3mb 70f 68f
1:12 13 14 mph 1013.4mb 70f 68f
1:06 13 14 mph 1013.4mb 70f 68f
1:00 11 13 mph 1013.5mb 70f 68f
12:54 13 14 mph 1013.6mb 70f 68f
12:48 14 15 mph 1013.6mb 70f 68f
12:42 13 15 mph 1013.6mb 70f 68f
12:36 13 15 mph 1013.8mb 70f 68f
12:30 14 15 mph 1013.9mb 70f 68f
12:24 14 15 mph 1013.8mb 70f 68f
12:18 13 14 mph 1013.9mb 70f 68f
12:12 13 14 mph 1013.9mb 70f 68f
12:06 13 14 mph 1014mb 70f 68f
12:00 13 15 mph 1014.1mb 70f 68f
Ter 06/30 11:54 11 14 mph 1014.2mb 70f 69f
11:48 13 15 mph 1014.3mb 70f 68f
11:42 14 16 mph 1014.3mb 70f 68f
11:36 14 15 mph 1014.3mb 70f 68f
11:30 14 15 mph 1014.4mb 70f 68f
11:24 14 15 mph 1014.4mb 70f 68f
11:18 11 14 mph 1014.4mb 70f 68f
11:12 14 15 mph 1014.5mb 70f 68f
11:06 13 14 mph 1014.5mb 70f 68f
11:00 13 15 mph 1014.6mb 70f 69f
10:54 14 16 mph 1014.6mb 70f 69f
10:48 14 15 mph 1014.5mb 70f 69f
10:42 14 15 mph 1014.6mb 70f 69f
10:36 13 15 mph 1014.7mb 70f 69f
10:30 14 16 mph 1014.8mb 70f 69f
10:24 15 16 mph 1014.8mb 70f 69f
10:18 14 15 mph 1014.9mb 70f 69f
10:12 14 15 mph 1015mb 70f 69f
10:06 13 15 mph 1015.2mb 70f 69f
10:00 14 15 mph 1015.1mb 70f 69f
9:54 14 16 mph 1015mb 70f 69f
9:48 14 15 mph 1014.9mb 70f 69f
9:42 15 16 mph 1014.8mb 70f 69f
9:36 14 15 mph 1014.8mb 70f 69f
9:30 13 14 mph 1014.8mb 71f 69f
9:24 14 15 mph 1014.8mb 71f 69f
9:18 14 15 mph 1014.6mb 71f 69f
9:12 13 14 mph 1014.6mb 71f 69f
9:06 10 14 mph 1014.6mb 71f 69f
9:00 13 14 mph 1014.5mb 71f 69f
8:54 10 11 mph 1014.4mb 71f 69f
8:48 8 9 mph 1014.3mb 71f 70f
8:42 8
mph
1014.2mb 71f 69f
8:36 8 9 mph 1014mb 71f 69f
8:30 9 10 mph 1014.1mb 71f 70f
8:24 10
mph
1014.1mb 71f 70f
8:18 10 11 mph 1014.2mb 71f 70f
8:12 11 14 mph 1014.2mb 71f 70f
8:06 14 15 mph 1014.2mb 71f 70f
8:00 14 15 mph 1014mb 71f 70f
7:54 15
mph
1014.1mb 71f 70f
7:48 14 15 mph 1014mb 71f 70f
7:42 14 16 mph 1014.1mb 71f 70f
7:36 15 16 mph 1014.1mb 70f 71f
7:00 14 15 mph 1014mb 70f 71f
6:54 14 15 mph 1014mb 70f 71f
6:48 14 15 mph 1014.1mb 70f 72f
6:42 14 16 mph 1014.1mb 70f 72f
6:36 16
mph
1014.1mb 70f 72f
6:30 14 15 mph 1014.1mb 70f 72f
6:24 13 14 mph 1014.1mb 70f 73f
6:18 14 15 mph 1014.2mb 70f 73f
6:12 14 16 mph 1014.3mb 70f 73f
6:06 15 16 mph 1014.3mb 69f 73f
6:00 16 17 mph 1014.2mb 69f 73f
5:54 16 17 mph 1014.2mb 69f 73f
5:48 14 16 mph 1014.1mb 69f 73f
5:42 16 18 mph 1014.2mb 69f 74f
5:36 17 18 mph 1014.3mb 69f 73f
5:30 18
mph
1014.2mb 69f 73f
5:24 14 15 mph 1014.3mb 69f 73f
5:18 14 15 mph 1014.4mb 69f 73f
5:12 15
mph
1014.3mb 69f 73f
5:06 14 15 mph 1014.3mb 69f 73f
5:00 14 17 mph 1014.3mb 69f 73f
4:54 17
mph
1014.4mb 69f 73f
4:48 16 17 mph 1014.6mb 69f 74f
4:42 16 18 mph 1014.5mb 69f 74f
4:36 17 18 mph 1014.6mb 69f 73f
4:30 17 18 mph 1014.6mb 70f 74f
4:24 18 20 mph 1014.6mb 70f 74f
4:18 17 18 mph 1014.6mb 70f 73f
4:12 17 18 mph 1014.5mb 70f 74f
4:06 17 18 mph 1014.5mb 70f 74f
4:00 17 20 mph 1014.6mb 70f 74f
3:54 18 20 mph 1014.6mb 70f 73f
3:48 17 18 mph 1014.7mb 70f 73f
3:42 18 20 mph 1014.7mb 70f 74f
3:36 17 20 mph 1014.6mb 71f 74f
3:30 17 18 mph 1014.7mb 71f 74f
3:24 16 20 mph 1014.8mb 71f 74f
3:18 20 21 mph 1014.8mb 71f 74f
3:12 20 21 mph 1014.9mb 71f 74f
3:06 21
mph
1015mb 70f 74f
3:00 20 21 mph 1015mb 70f 74f
2:54 18 21 mph 1015.1mb 70f 74f
2:48 20 21 mph 1015mb 70f 74f
2:42 18 22 mph 1015.1mb 70f 74f
2:36 21 23 mph 1015.1mb 69f 73f
2:30 21 23 mph 1015.1mb 69f 73f
2:24 22 24 mph 1015mb 69f 73f
2:18 23 25 mph 1015mb 69f 73f
2:12 23 25 mph 1015mb 69f 73f
2:06 23 25 mph 1015mb 69f 73f
2:00 24 26 mph 1015mb 69f 73f
1:54 23 25 mph 1014.9mb 69f 73f
1:48 24 26 mph 1014.9mb 69f 74f
1:42 23 24 mph 1014.9mb 69f 74f
1:36 21 24 mph 1014.9mb 69f 74f
1:30 18 21 mph 1014.8mb 69f 74f
1:24 20 21 mph 1014.9mb 69f 74f
1:18 17 21 mph 1014.9mb 70f 74f
1:12 15 21 mph 1014.9mb 70f 74f
1:06 17 20 mph 1014.9mb 70f 74f
1:00 16 18 mph 1015mb 70f 74f
12:54 17 18 mph 1015.1mb 70f 74f
12:48 15 18 mph 1015.2mb 70f 74f
12:42 17
mph
1015.2mb 70f 74f
12:36 16 17 mph 1015.2mb 70f 73f
12:30 16 17 mph 1015.2mb 70f 73f
12:24 17 18 mph 1015.3mb 70f 73f
12:18 11 15 mph 1015.4mb 70f 73f
12:12 3 6 mph 1015.5mb 69f 74f
12:06 6 9 mph 1015.5mb 69f 74f
12:00 6 7 mph 1015.5mb 69f 73f
11:54 6
mph
1015.5mb 69f 73f
11:48 6 7 mph 1015.4mb 69f 73f
11:42 6 7 mph 1015.5mb 69f 73f
11:36 6 7 mph 1015.5mb 69f 73f
11:30 7 8 mph 1015.6mb 69f 72f
11:24 8 9 mph 1015.6mb 69f 72f
11:18 7 8 mph 1015.7mb 69f 71f
11:12 8 9 mph 1015.7mb 69f 71f
11:06 7 8 mph 1015.8mb 69f 70f
11:00 8
mph
1015.7mb 69f 70f
10:54 7 8 mph 1015.7mb 69f 70f
10:48 8
mph
1015.7mb 69f 70f
10:42 8 9 mph 1015.7mb 69f 69f
10:36 9
mph
1015.7mb 69f 69f
10:30 9 10 mph 1015.7mb 69f 69f
10:24 9 10 mph 1015.7mb 69f 69f
10:18 8 9 mph 1015.8mb 69f 69f
10:12 8 9 mph 1015.8mb 68f 68f
10:06 8 9 mph 1015.8mb 68f 68f
10:00 7
mph
1015.7mb 69f 68f
9:54 6 7 mph 1015.8mb 69f 68f
9:48 7 8 mph 1015.8mb 69f 67f
9:42 7 8 mph 1015.8mb 69f 67f
9:36 8 9 mph 1015.8mb 69f 67f
9:30 8 9 mph 1015.7mb 69f 67f
9:24 6 7 mph 1015.8mb 69f 67f
9:18 6 7 mph 1015.8mb 69f 67f
9:12 6 7 mph 1015.9mb 69f 67f
9:06 5 6 mph 1016mb 69f 67f
9:00 5 6 mph 1016.1mb 68f 66f
8:54 5 6 mph 1016.1mb 69f 66f
8:48 6 7 mph 1016.2mb 68f 66f
8:42 6
mph
1016.1mb 68f 66f
8:36 3
mph
1016.1mb 68f 66f
8:30 5
mph
1016.1mb 68f 66f
8:24 2 3 mph 1016.2mb 68f 66f
8:18 1 2 mph 1016.2mb 68f 66f
8:12 2 3 mph 1016.1mb 68f 66f
8:06 3 5 mph 1016.2mb 68f 66f
8:00 3 5 mph 1016.2mb 68f 66f
7:54 3 5 mph 1016.2mb 68f 66f
7:48 3
mph
1016.1mb 68f 65f
7:42 1 2 mph 1016.1mb 68f 65f
7:36 1 3 mph 1016mb 68f 65f
7:30 3 5 mph 1016mb 68f 65f
7:24 3 5 mph 1015.9mb 68f 65f
7:18 3 5 mph 1015.9mb 68f 65f
7:12 2 3 mph 1015.7mb 68f 65f
7:06 3 5 mph 1015.6mb 68f 65f
7:00 5 6 mph 1015.5mb 68f 65f
6:54 5 7 mph 1015.5mb 68f 65f
6:48 5 6 mph 1015.5mb 68f 65f
6:42 3 5 mph 1015.4mb 68f 64f
6:36 5
mph
1015.3mb 68f 64f
6:30 3 5 mph 1015.3mb 68f 64f
6:24 3 5 mph 1015.2mb 68f 65f
6:18 3 5 mph 1015.1mb 68f 65f
6:12 5
mph
1015.1mb 68f 65f
6:06 5
mph
1015mb 68f 65f
6:00 5
mph
1015.1mb 68f 65f
5:54 3 5 mph 1015.1mb 68f 65f
5:48 3 5 mph 1015.1mb 68f 65f
5:42 5 6 mph 1015.1mb 68f 64f
5:36 6 7 mph 1015.1mb 68f 65f
5:30 6 7 mph 1015.1mb 68f 64f
5:24 6
mph
1015mb 68f 65f
5:18 5 6 mph 1014.9mb 68f 65f
5:12 6
mph
1014.9mb 68f 65f
5:06 5 6 mph 1014.9mb 68f 65f
5:00 5 6 mph 1014.8mb 68f 65f
4:54 5 6 mph 1014.9mb 68f 65f
4:48 6
mph
1014.9mb 68f 65f
4:42 5 6 mph 1014.9mb 68f 65f
4:36 5 6 mph 1014.9mb 68f 65f
4:30 6
mph
1014.9mb 69f 65f
4:24  -  2 mph 1014.9mb 69f 65f
4:18  -  5 mph 1014.9mb 69f 64f
4:12 3 5 mph 1014.9mb 69f 65f
4:06 3 6 mph 1014.9mb 69f 64f
4:00 5 6 mph 1014.9mb 69f 64f
3:54 5
mph
1014.9mb 69f 64f
3:48 2 3 mph 1015mb 69f 64f
3:42 3 6 mph 1014.9mb 69f 64f
3:36 2 3 mph 1014.9mb 69f 64f
3:30 1 2 mph 1014.8mb 69f 64f
3:24  -  mph 1014.8mb 69f 64f
3:18  -  2 mph 1014.8mb 69f 64f
3:12 2
mph
1014.8mb 69f 63f
3:06 2 6 mph 1014.7mb 69f 64f
3:00 5 7 mph 1014.6mb 69f 64f
2:54 7 8 mph 1014.6mb 69f 64f
2:48 6 7 mph - 69f -
2:42 6 7 mph - 69f -
2:36 5 6 mph - 69f -
2:30 5 6 mph 1014.5mb 69f 64f
2:24 2 3 mph 1014.5mb 69f 64f
2:18 2 5 mph 1014.5mb 69f 64f
2:12 5 6 mph 1014.5mb 69f 64f
2:06 6 8 mph 1014.5mb 69f 64f
2:00 6 8 mph 1014.5mb 69f 64f
1:54 6
mph
1014.5mb 69f 64f
1:48 3 5 mph 1014.4mb 69f 64f
1:42 3 5 mph 1014.5mb 69f 64f
1:36 3
mph
1014.4mb 69f 64f
1:30 2 5 mph 1014.4mb 69f 65f
1:24 5
mph
1014.3mb 69f 65f
1:18 5 7 mph 1014.4mb 69f 65f
1:12 7
mph
1014.4mb 69f 65f
1:06 6 7 mph 1014.4mb 69f 66f
1:00 5 6 mph 1014.4mb 69f 66f
12:54 3 5 mph 1014.4mb 69f 66f
12:48  -  2 mph 1014.4mb 69f 65f
12:42 1 2 mph 1014.4mb 69f 65f
12:36 2 3 mph 1014.4mb 69f 65f
12:30 2
mph
1014.3mb 69f 65f
12:24  -  1 mph 1014.3mb 69f 65f
12:18  -  2 mph 1014.3mb 69f 65f
12:12 2
mph
1014.2mb 69f 65f
12:06 2
mph
1014.2mb 69f 65f
12:00 2 3 mph 1014.2mb 69f 65f
Seg 06/29 11:54 2 5 mph 1014.1mb 69f 65f
11:48 3 6 mph 1014.2mb 69f 66f
11:42 6 7 mph 1014.2mb 69f 66f
11:36 6 8 mph 1014.2mb 69f 66f
11:30 7 9 mph 1014.2mb 69f 66f
11:24 9 11 mph 1014mb 69f 66f
11:18 10 11 mph 1014mb 69f 66f
11:12 9 11 mph 1013.9mb 69f 66f
11:06 10 11 mph 1013.9mb 69f 66f
11:00 10 13 mph 1013.9mb 69f 66f
10:54 11 14 mph 1013.9mb 69f 66f
10:48 13 15 mph 1013.8mb 69f 66f
10:42 13 15 mph 1013.8mb 69f 66f
10:36 14 16 mph 1013.7mb 69f 66f
10:30 13 14 mph 1013.7mb 69f 67f
10:24 13 15 mph 1013.7mb 69f 67f
10:18 13 15 mph 1013.7mb 69f 67f
10:12 13 16 mph 1013.6mb 69f 67f
10:06 14 15 mph 1013.7mb 69f 67f
10:00 15 16 mph 1013.6mb 69f 67f
9:54 14 15 mph 1013.7mb 69f 67f
9:48 13 14 mph 1013.5mb 69f 68f
9:42 13 14 mph 1013.4mb 69f 68f
9:36 13 15 mph 1013.3mb 69f 68f
9:30 13 16 mph 1013.2mb 69f 68f
9:24 14 16 mph 1013.2mb 69f 68f
9:18 13 16 mph 1013.1mb 69f 68f
9:12 13 15 mph 1013mb 69f 68f
9:06 13 16 mph 1012.9mb 69f 69f
9:00 13 16 mph 1012.8mb 69f 69f
8:54 14 16 mph 1012.8mb 69f 69f
8:48 15 17 mph 1012.7mb 69f 69f
8:42 14 15 mph 1012.7mb 69f 69f
8:36 13 15 mph 1012.6mb 69f 69f
8:30 13 16 mph 1012.5mb 69f 69f
8:24 13 15 mph 1012.6mb 69f 69f
8:18 15 16 mph 1012.6mb 69f 69f
8:12 15 17 mph 1012.6mb 69f 70f
8:06 14 18 mph 1012.5mb 69f 69f
8:00 16 17 mph 1012.4mb 69f 70f
7:54 14 18 mph 1012.4mb 69f 70f
7:48 15 18 mph 1012.4mb 69f 70f
7:42 13 14 mph 1012.4mb 68f 70f
7:36 11 13 mph 1012.4mb 68f 71f
7:30 10 11 mph 1012.4mb 68f 72f
7:24 9 11 mph 1012.4mb 68f 73f
7:18 9 13 mph 1012.2mb 68f 73f
7:12 10 13 mph 1012.2mb 68f 73f
7:06 10 15 mph 1012.2mb 68f 73f
7:00 13 16 mph 1012.1mb 68f 73f
6:54 11 16 mph 1012mb 68f 73f
6:48 13 16 mph 1011.9mb 68f 73f
6:42 11 15 mph 1011.9mb 68f 72f
6:36 13 15 mph 1011.8mb 68f 73f
6:30 13 15 mph 1011.8mb 68f 73f
6:24 13 16 mph 1011.8mb 68f 72f
6:18 11 13 mph 1011.7mb 68f 73f
6:12 11 14 mph 1011.6mb 68f 73f
6:06 9 11 mph 1011.6mb 68f 72f
6:00 9 14 mph 1011.5mb 68f 72f
5:54 13 14 mph 1011.5mb 68f 73f
5:48 13 15 mph 1011.5mb 68f 73f
5:42 11 14 mph 1011.4mb 68f 73f
5:36 9 11 mph 1011.4mb 68f 72f
5:30 10 14 mph 1011.3mb 67f 73f
5:24 13 15 mph 1011.3mb 67f 72f
5:18 14 15 mph 1011.4mb 67f 72f
5:12 8 13 mph 1011.3mb 68f 72f
5:06 11 14 mph 1011.3mb 68f 72f
5:00 9 14 mph 1011.3mb 68f 72f
4:54 9 13 mph 1011.2mb 68f 72f
4:48 9 13 mph 1011.1mb 68f 72f
4:42 10 14 mph 1011.1mb 68f 71f
4:36 13 15 mph 1011mb 68f 71f
4:30 14 15 mph 1010.9mb 68f 71f
4:24 13 15 mph 1010.9mb 68f 71f
4:18 13 16 mph 1010.9mb 68f 71f
4:12 13 16 mph 1010.9mb 68f 71f
4:06 11 15 mph 1011mb 68f 71f
4:00 13 15 mph 1011mb 68f 71f
3:54 13 16 mph 1011mb 68f 71f
3:48 16 18 mph 1010.9mb 68f 71f
3:42 16 17 mph 1010.9mb 68f 70f
3:36 17 18 mph 1010.9mb 68f 70f
3:30 18 21 mph 1010.9mb 68f 70f
3:24 17 21 mph 1010.9mb 68f 70f
3:18 16 20 mph 1010.8mb 68f 70f
3:12 15 17 mph 1010.8mb 68f 70f
3:06 10 13 mph 1010.8mb 68f 71f
3:00 13 15 mph 1010.8mb 68f 70f
2:54 14 15 mph 1010.8mb 68f 69f
2:48 15 16 mph 1010.8mb 68f 69f
2:42 15 17 mph 1010.7mb 68f 69f
2:36 16 17 mph 1010.7mb 68f 69f
2:30 17
mph
1010.7mb 68f 69f
2:24 13 14 mph 1010.8mb 68f 69f
2:18 11 13 mph 1010.9mb 68f 69f
2:12 10 11 mph 1010.9mb 68f 69f
2:06 9 10 mph 1010.9mb 68f 69f
2:00 8
mph
1010.9mb 68f 69f
1:54 5 8 mph 1011mb 68f 70f
1:48 8 11 mph 1011mb 68f 70f
1:42 9 13 mph 1011mb 68f 69f
1:36 10 11 mph 1010.9mb 68f 68f
1:30 10 14 mph 1010.9mb 68f 68f
1:24 13 15 mph 1010.8mb 68f 68f
1:18 11 14 mph 1010.8mb 68f 67f
1:12 10 13 mph 1010.8mb 68f 67f
1:06 10 13 mph 1010.9mb 68f 67f
1:00 9 14 mph 1010.9mb 68f 67f
12:54 10 11 mph 1011mb 68f 67f
12:48 8 10 mph 1010.9mb 68f 67f
12:42 9 10 mph 1010.9mb 68f 67f
12:36 9 11 mph 1010.9mb 68f 66f
12:30 10 11 mph 1010.9mb 68f 66f
12:24 11 13 mph 1010.9mb 68f 66f
12:18 13 15 mph 1011mb 68f 66f
12:12 14 15 mph 1011.1mb 68f 66f
12:06 11 14 mph 1011mb 68f 66f
12:00 7 9 mph 1011mb 68f 68f
11:54 8 10 mph 1011mb 68f 68f
11:48 8 11 mph 1010.9mb 68f 68f
11:42 10 14 mph 1010.9mb 68f 67f
11:36 9 11 mph 1010.9mb 68f 67f
11:30 7 14 mph 1010.8mb 68f 67f
11:24 8 14 mph 1010.7mb 68f 67f
11:18 9 10 mph 1010.7mb 68f 66f
11:12 9 14 mph 1010.7mb 67f 67f
11:06 8 10 mph 1010.5mb 67f 66f
11:00 6 9 mph 1010.4mb 67f 65f
10:54 6 11 mph 1010.5mb 67f 65f
10:48 7 9 mph 1010.5mb 67f 64f
10:42 8 9 mph 1010.4mb 67f 64f
10:36 6 9 mph 1010.4mb 67f 64f
10:30 8 9 mph 1010.3mb 67f 63f
10:24 7 8 mph 1010.4mb 67f 63f
10:18 7 9 mph 1010.4mb 67f 62f
10:12 6 8 mph 1010.4mb 67f 62f
10:06 6 7 mph 1010.3mb 67f 62f
10:00 7 8 mph 1010.4mb 67f 62f
9:54 7 8 mph 1010.4mb 67f 61f
9:48 8 9 mph 1010.5mb 67f 61f
9:42 8 9 mph 1010.4mb 67f 61f
9:36 8 9 mph 1010.4mb 67f 61f
9:30 8 9 mph 1010.4mb 67f 61f
9:24 6 8 mph 1010.5mb 67f 61f
9:18 6 8 mph 1010.5mb 67f 60f
9:12 6 7 mph 1010.6mb 67f 60f
9:06 6 7 mph 1010.6mb 67f 60f
9:00 6 7 mph 1010.5mb 67f 60f
8:54 3 5 mph 1010.4mb 67f 60f
8:48 3 5 mph 1010.4mb 67f 60f
8:42 5 6 mph 1010.2mb 67f 59f
8:36 5 6 mph 1010.3mb 67f 59f
8:30 2 3 mph 1010.2mb 67f 59f
8:24 2 3 mph 1010.1mb 67f 59f
8:18 2 3 mph 1010.1mb 67f 59f
8:12  -  2 mph 1010mb 67f 59f
8:06 2
mph
1010mb 67f 58f
8:00 1 2 mph 1010mb 67f 59f
7:54 1 2 mph 1010mb 67f 58f
7:48  -  1 mph 1009.9mb 67f 59f
7:42  -  3 mph 1010mb 67f 58f
7:36 3
mph
1010.1mb 67f 58f
7:30 3 6 mph 1010.1mb 67f 58f
7:24 5 6 mph 1010.1mb 67f 58f
7:18 5 6 mph 1010mb 67f 58f
7:12 6
mph
1009.9mb 67f 58f
7:06 5 6 mph 1010mb 67f 58f
7:00 6 7 mph 1010mb 67f 57f
6:54 5 7 mph 1010mb 67f 58f
6:48 6 8 mph 1009.9mb 67f 57f
6:42 6 8 mph 1009.8mb 67f 57f
6:36 5 7 mph 1009.8mb 67f 57f
6:30 6 7 mph 1010mb 67f 57f
6:24 3 6 mph 1009.9mb 67f 57f
6:18 6 7 mph 1009.7mb 67f 57f
6:12 5 7 mph 1009.8mb 67f 57f
6:06 7 10 mph 1009.8mb 67f 57f
6:00 5 7 mph 1009.7mb 67f 56f
5:54 5 6 mph 1009.7mb 67f 56f
5:48 2 6 mph 1009.6mb 67f 56f
5:42 3 6 mph 1009.6mb 67f 56f
5:36 5 6 mph 1009.6mb 67f 56f
5:30 5 6 mph 1009.5mb 67f 56f
5:24 5 6 mph 1009.5mb 67f 56f
5:18 5 6 mph 1009.5mb 67f 55f
5:12 3 6 mph 1009.5mb 67f 56f
5:06 5 6 mph 1009.5mb 67f 55f
5:00 5 6 mph 1009.4mb 67f 56f
4:54 5 6 mph 1009.4mb 67f 56f
4:48 3 5 mph 1009.3mb 67f 56f
4:42 5 6 mph 1009.2mb 67f 56f
4:36 3 5 mph 1009.1mb 68f 56f
4:30 3 5 mph 1009mb 68f 56f
4:24 3 6 mph 1008.9mb 68f 55f
4:18 2 5 mph 1008.8mb 68f 56f
4:12 2 5 mph 1008.7mb 68f 56f
4:06 3 5 mph 1008.7mb 68f 55f
4:00 2 5 mph 1008.7mb 68f 56f
3:54 5 6 mph 1008.6mb 68f 55f
3:48 5 6 mph 1008.6mb 68f 55f
3:42 3 5 mph 1008.6mb 68f 55f
3:36 3 6 mph 1008.6mb 68f 55f
3:30 5 7 mph 1008.5mb 68f 56f
3:24 6 7 mph 1008.5mb 68f 55f
3:18 6 7 mph 1008.5mb 68f 56f
3:12 6 7 mph 1008.6mb 68f 55f
3:06 6 8 mph 1008.6mb 68f 55f
3:00 5 7 mph 1008.6mb 68f 55f
2:54 7 8 mph 1008.5mb 68f 55f
2:48 7 8 mph - - 55f
2:42 7
mph
- - 55f
2:36 5 7 mph - - 55f
2:30 6 7 mph - 68f 55f
2:24 6 8 mph - 68f 55f
2:18 6 8 mph - - -
2:12 5 7 mph - - -
2:06 6 8 mph - - -
2:00 6 7 mph 1008.3mb 68f 55f
1:54 6 7 mph 1008.4mb 68f 55f
1:48 5 6 mph 1008.4mb 68f 55f
1:42 3 7 mph 1008.5mb 68f 55f
1:36 6 8 mph 1008.4mb 68f 55f
1:30 6 8 mph 1008.3mb 68f 55f
1:24 7 8 mph 1008.4mb 68f 55f
1:18 7 9 mph 1008.4mb 68f 55f
1:12 7 8 mph 1008.2mb 68f 55f
1:06 7 9 mph 1008.4mb 68f 55f
1:00 7 9 mph 1008.5mb 68f 55f
12:54 8 10 mph 1008.5mb 68f 55f
12:48 8 10 mph 1008.4mb 68f 56f
12:42 7 8 mph 1008.4mb 68f 56f
12:36 7 9 mph 1008.4mb 68f 55f
12:30 8 9 mph 1008.3mb 68f 55f
12:24 9 11 mph 1008.3mb 68f 56f
12:18 6 8 mph 1008.3mb 68f 56f